Aviation Digital Data Service (ADDS)

Output produced by METARs form (0639 UTC 24 March 2019)
found at http://www.aviationweather.gov/metar/data/
 
SOCA 240630Z AUTO 04005KT 010V070 9999 BKN022 BKN038 OVC050 26/23 Q1012
TAF SOCA 232200Z 2400/2424 VRB02KT 9999 SCT020 SCT050 
     FM241300 07012KT 9999 SCT028 SCT060 
     PROB30 
     TEMPO 2400/2424 SHRA FEW012TCU